sensor_id;sensor_type;location;lat;lon;timestamp;pressure;altitude;pressure_sealevel;temperature;humidity
63097;BME280;49185;42.320;23.198;2023-06-14T00:01:50;94576.94;;;15.15;100.00
63097;BME280;49185;42.320;23.198;2023-06-14T00:04:16;94571.44;;;15.35;100.00
63097;BME280;49185;42.320;23.198;2023-06-14T00:06:41;94570.94;;;15.28;100.00
63097;BME280;49185;42.320;23.198;2023-06-14T00:09:07;94569.69;;;15.15;100.00
63097;BME280;49185;42.320;23.198;2023-06-14T00:11:32;94573.00;;;15.07;100.00
63097;BME280;49185;42.320;23.198;2023-06-14T00:13:57;94570.09;;;15.04;100.00
63097;BME280;49185;42.320;23.198;2023-06-14T00:16:23;94570.59;;;15.06;100.00
63097;BME280;49185;42.320;23.198;2023-06-14T00:18:48;94570.31;;;15.07;100.00
63097;BME280;49185;42.320;23.198;2023-06-14T00:21:14;94564.16;;;15.07;100.00
63097;BME280;49185;42.320;23.198;2023-06-14T00:23:39;94560.94;;;15.05;100.00
63097;BME280;49185;42.320;23.198;2023-06-14T00:26:05;94562.84;;;15.04;100.00
63097;BME280;49185;42.320;23.198;2023-06-14T00:28:30;94560.66;;;15.06;100.00
63097;BME280;49185;42.320;23.198;2023-06-14T00:30:56;94556.69;;;15.04;100.00
63097;BME280;49185;42.320;23.198;2023-06-14T00:33:21;94548.94;;;15.02;100.00
63097;BME280;49185;42.320;23.198;2023-06-14T00:35:46;94549.72;;;15.03;100.00
63097;BME280;49185;42.320;23.198;2023-06-14T00:38:12;94548.41;;;15.00;100.00
63097;BME280;49185;42.320;23.198;2023-06-14T00:40:38;94551.88;;;15.00;100.00
63097;BME280;49185;42.320;23.198;2023-06-14T00:43:03;94543.28;;;15.04;100.00
63097;BME280;49185;42.320;23.198;2023-06-14T00:45:28;94549.72;;;15.03;100.00
63097;BME280;49185;42.320;23.198;2023-06-14T00:47:54;94542.47;;;15.03;100.00
63097;BME280;49185;42.320;23.198;2023-06-14T00:50:20;94542.19;;;15.05;100.00
63097;BME280;49185;42.320;23.198;2023-06-14T00:52:46;94545.66;;;15.10;100.00
63097;BME280;49185;42.320;23.198;2023-06-14T00:55:11;94539.75;;;15.08;100.00
63097;BME280;49185;42.320;23.198;2023-06-14T00:57:37;94540.63;;;15.04;100.00
63097;BME280;49185;42.320;23.198;2023-06-14T01:00:03;94532.84;;;15.02;100.00
63097;BME280;49185;42.320;23.198;2023-06-14T01:02:29;94532.06;;;15.02;100.00
63097;BME280;49185;42.320;23.198;2023-06-14T01:04:55;94533.41;;;14.99;100.00
63097;BME280;49185;42.320;23.198;2023-06-14T01:15:57;94531.19;;;15.06;100.00
63097;BME280;49185;42.320;23.198;2023-06-14T01:18:23;94522.59;;;15.09;100.00
63097;BME280;49185;42.320;23.198;2023-06-14T01:20:48;94522.53;;;15.19;100.00
63097;BME280;49185;42.320;23.198;2023-06-14T01:23:14;94526.19;;;15.29;100.00
63097;BME280;49185;42.320;23.198;2023-06-14T01:25:39;94519.06;;;15.43;100.00
63097;BME280;49185;42.320;23.198;2023-06-14T01:28:06;94521.19;;;15.46;100.00
63097;BME280;49185;42.320;23.198;2023-06-14T01:30:32;94518.50;;;15.17;100.00
63097;BME280;49185;42.320;23.198;2023-06-14T01:32:57;94516.47;;;15.09;100.00
63097;BME280;49185;42.320;23.198;2023-06-14T01:35:24;94521.34;;;15.02;100.00
63097;BME280;49185;42.320;23.198;2023-06-14T01:37:50;94517.00;;;15.06;100.00
63097;BME280;49185;42.320;23.198;2023-06-14T01:40:17;94516.50;;;15.04;100.00
63097;BME280;49185;42.320;23.198;2023-06-14T01:42:44;94523.78;;;14.98;100.00
63097;BME280;49185;42.320;23.198;2023-06-14T01:45:11;94515.25;;;14.91;100.00
63097;BME280;49185;42.320;23.198;2023-06-14T01:47:37;94521.69;;;14.90;100.00
63097;BME280;49185;42.320;23.198;2023-06-14T01:50:03;94522.50;;;14.90;100.00
63097;BME280;49185;42.320;23.198;2023-06-14T01:52:29;94516.06;;;14.91;100.00
63097;BME280;49185;42.320;23.198;2023-06-14T01:54:54;94525.69;;;14.92;100.00
63097;BME280;49185;42.320;23.198;2023-06-14T01:57:20;94515.78;;;14.93;100.00
63097;BME280;49185;42.320;23.198;2023-06-14T01:59:46;94528.13;;;14.89;100.00
63097;BME280;49185;42.320;23.198;2023-06-14T02:02:11;94528.72;;;14.86;100.00
63097;BME280;49185;42.320;23.198;2023-06-14T02:04:37;94528.22;;;14.78;100.00
63097;BME280;49185;42.320;23.198;2023-06-14T02:07:02;94538.16;;;14.73;100.00
63097;BME280;49185;42.320;23.198;2023-06-14T02:09:27;94536.25;;;14.78;100.00
63097;BME280;49185;42.320;23.198;2023-06-14T02:11:53;94548.22;;;15.21;100.00
63097;BME280;49185;42.320;23.198;2023-06-14T02:14:18;94544.16;;;15.28;100.00
63097;BME280;49185;42.320;23.198;2023-06-14T02:16:44;94545.25;;;15.51;100.00
63097;BME280;49185;42.320;23.198;2023-06-14T02:19:09;94550.84;;;15.84;100.00
63097;BME280;49185;42.320;23.198;2023-06-14T02:21:35;94542.28;;;15.82;100.00
63097;BME280;49185;42.320;23.198;2023-06-14T02:24:00;94542.03;;;16.03;100.00
63097;BME280;49185;42.320;23.198;2023-06-14T02:26:25;94550.44;;;15.96;100.00
63097;BME280;49185;42.320;23.198;2023-06-14T02:28:51;94550.16;;;15.68;100.00
63097;BME280;49185;42.320;23.198;2023-06-14T02:31:16;94551.47;;;15.47;100.00
63097;BME280;49185;42.320;23.198;2023-06-14T02:33:41;94548.03;;;15.41;100.00
63097;BME280;49185;42.320;23.198;2023-06-14T02:36:07;94554.16;;;15.76;100.00
63097;BME280;49185;42.320;23.198;2023-06-14T02:38:32;94552.25;;;15.77;100.00
63097;BME280;49185;42.320;23.198;2023-06-14T02:40:58;94554.06;;;15.57;100.00
63097;BME280;49185;42.320;23.198;2023-06-14T02:43:23;94549.28;;;15.49;100.00
63097;BME280;49185;42.320;23.198;2023-06-14T02:45:49;94554.06;;;15.28;100.00
63097;BME280;49185;42.320;23.198;2023-06-14T02:48:14;94548.19;;;15.26;100.00
63097;BME280;49185;42.320;23.198;2023-06-14T02:50:39;94552.44;;;14.97;100.00
63097;BME280;49185;42.320;23.198;2023-06-14T02:53:05;94549.91;;;14.82;100.00
63097;BME280;49185;42.320;23.198;2023-06-14T02:55:30;94547.34;;;14.61;100.00
63097;BME280;49185;42.320;23.198;2023-06-14T02:57:56;94553.59;;;14.47;100.00
63097;BME280;49185;42.320;23.198;2023-06-14T03:00:21;94558.72;;;14.38;100.00
63097;BME280;49185;42.320;23.198;2023-06-14T03:02:47;94553.50;;;14.57;100.00
63097;BME280;49185;42.320;23.198;2023-06-14T03:05:12;94555.66;;;14.55;100.00
63097;BME280;49185;42.320;23.198;2023-06-14T03:07:38;94558.94;;;14.47;100.00
63097;BME280;49185;42.320;23.198;2023-06-14T03:10:03;94566.31;;;15.05;100.00
63097;BME280;49185;42.320;23.198;2023-06-14T03:12:29;94567.16;;;15.00;100.00
63097;BME280;49185;42.320;23.198;2023-06-14T03:14:54;94575.13;;;14.71;100.00
63097;BME280;49185;42.320;23.198;2023-06-14T03:17:20;94571.50;;;14.46;100.00
63097;BME280;49185;42.320;23.198;2023-06-14T03:19:45;94573.97;;;14.32;100.00
63097;BME280;49185;42.320;23.198;2023-06-14T03:22:10;94581.78;;;14.23;100.00
63097;BME280;49185;42.320;23.198;2023-06-14T03:24:36;94578.59;;;14.16;100.00
63097;BME280;49185;42.320;23.198;2023-06-14T03:27:02;94588.25;;;14.12;100.00
63097;BME280;49185;42.320;23.198;2023-06-14T03:29:28;94587.47;;;14.07;100.00
63097;BME280;49185;42.320;23.198;2023-06-14T03:32:03;94586.97;;;14.04;100.00
63097;BME280;49185;42.320;23.198;2023-06-14T03:34:28;94596.31;;;14.02;100.00
63097;BME280;49185;42.320;23.198;2023-06-14T03:36:54;94594.47;;;14.02;100.00
63097;BME280;49185;42.320;23.198;2023-06-14T03:39:19;94593.91;;;14.05;100.00
63097;BME280;49185;42.320;23.198;2023-06-14T03:41:45;94585.09;;;14.05;100.00
63097;BME280;49185;42.320;23.198;2023-06-14T03:44:13;94591.78;;;14.02;100.00
63097;BME280;49185;42.320;23.198;2023-06-14T03:46:38;94598.16;;;14.12;100.00
63097;BME280;49185;42.320;23.198;2023-06-14T03:49:04;94596.03;;;14.09;100.00
63097;BME280;49185;42.320;23.198;2023-06-14T03:51:29;94597.91;;;14.08;100.00
63097;BME280;49185;42.320;23.198;2023-06-14T03:53:55;94596.00;;;14.14;100.00
63097;BME280;49185;42.320;23.198;2023-06-14T03:56:20;94597.84;;;14.23;100.00
63097;BME280;49185;42.320;23.198;2023-06-14T03:58:45;94601.59;;;14.28;100.00
63097;BME280;49185;42.320;23.198;2023-06-14T04:01:11;94606.88;;;14.38;100.00
63097;BME280;49185;42.320;23.198;2023-06-14T04:03:36;94609.19;;;14.55;100.00
63097;BME280;49185;42.320;23.198;2023-06-14T04:06:02;94605.34;;;14.76;100.00
63097;BME280;49185;42.320;23.198;2023-06-14T04:08:27;94597.50;;;14.90;100.00
63097;BME280;49185;42.320;23.198;2023-06-14T04:10:53;94609.69;;;15.07;100.00
63097;BME280;49185;42.320;23.198;2023-06-14T04:13:18;94600.41;;;15.33;100.00
63097;BME280;49185;42.320;23.198;2023-06-14T04:15:44;94603.78;;;15.44;100.00
63097;BME280;49185;42.320;23.198;2023-06-14T04:18:09;94604.22;;;16.10;100.00
63097;BME280;49185;42.320;23.198;2023-06-14T04:20:35;94600.72;;;16.33;100.00
63097;BME280;49185;42.320;23.198;2023-06-14T04:23:14;94592.25;;;16.45;100.00
63097;BME280;49185;42.320;23.198;2023-06-14T04:25:39;94593.28;;;16.68;100.00
63097;BME280;49185;42.320;23.198;2023-06-14T04:28:05;94607.72;;;16.73;100.00
63097;BME280;49185;42.320;23.198;2023-06-14T04:30:30;94600.09;;;17.18;100.00
63097;BME280;49185;42.320;23.198;2023-06-14T04:32:56;94600.38;;;17.35;99.07
63097;BME280;49185;42.320;23.198;2023-06-14T04:35:21;94604.97;;;17.16;99.93
63097;BME280;49185;42.320;23.198;2023-06-14T04:37:47;94611.63;;;17.37;98.21
63097;BME280;49185;42.320;23.198;2023-06-14T04:40:12;94612.50;;;17.33;97.58
63097;BME280;49185;42.320;23.198;2023-06-14T04:42:37;94609.88;;;17.27;98.71
63097;BME280;49185;42.320;23.198;2023-06-14T04:45:03;94614.84;;;16.63;100.00
63097;BME280;49185;42.320;23.198;2023-06-14T04:47:29;94609.66;;;16.48;100.00
63097;BME280;49185;42.320;23.198;2023-06-14T04:49:54;94614.69;;;16.74;100.00
63097;BME280;49185;42.320;23.198;2023-06-14T04:52:20;94607.22;;;17.08;100.00
63097;BME280;49185;42.320;23.198;2023-06-14T04:54:45;94613.25;;;17.19;100.00
63097;BME280;49185;42.320;23.198;2023-06-14T04:57:10;94615.38;;;18.44;94.53
63097;BME280;49185;42.320;23.198;2023-06-14T04:59:36;94621.94;;;19.61;89.38
63097;BME280;49185;42.320;23.198;2023-06-14T05:02:01;94612.97;;;20.45;83.63
63097;BME280;49185;42.320;23.198;2023-06-14T05:04:27;94620.94;;;21.99;75.38
63097;BME280;49185;42.320;23.198;2023-06-14T05:06:52;94626.50;;;23.30;68.46
63097;BME280;49185;42.320;23.198;2023-06-14T05:09:18;94630.13;;;22.24;72.86
63097;BME280;49185;42.320;23.198;2023-06-14T05:11:43;94632.97;;;21.19;75.62
63097;BME280;49185;42.320;23.198;2023-06-14T05:14:12;94633.91;;;20.31;80.85
63097;BME280;49185;42.320;23.198;2023-06-14T05:16:38;94634.06;;;19.72;84.00
63097;BME280;49185;42.320;23.198;2023-06-14T05:19:03;94640.56;;;19.26;86.50
63097;BME280;49185;42.320;23.198;2023-06-14T05:21:29;94638.16;;;19.24;87.99
63097;BME280;49185;42.320;23.198;2023-06-14T05:23:54;94639.50;;;20.03;85.15
63097;BME280;49185;42.320;23.198;2023-06-14T05:26:20;94644.94;;;19.81;87.46
63097;BME280;49185;42.320;23.198;2023-06-14T05:28:45;94647.94;;;19.57;87.02
63097;BME280;49185;42.320;23.198;2023-06-14T05:31:11;94649.88;;;20.59;84.97
63097;BME280;49185;42.320;23.198;2023-06-14T05:33:36;94654.78;;;21.05;80.24
63097;BME280;49185;42.320;23.198;2023-06-14T05:36:02;94650.28;;;20.35;83.41
63097;BME280;49185;42.320;23.198;2023-06-14T05:38:27;94658.41;;;19.58;86.41
63097;BME280;49185;42.320;23.198;2023-06-14T05:40:52;94658.03;;;19.51;87.40
63097;BME280;49185;42.320;23.198;2023-06-14T05:43:18;94658.59;;;19.39;88.23
63097;BME280;49185;42.320;23.198;2023-06-14T05:45:43;94661.22;;;18.94;90.38
63097;BME280;49185;42.320;23.198;2023-06-14T05:48:09;94658.91;;;19.38;88.74
63097;BME280;49185;42.320;23.198;2023-06-14T05:50:34;94662.28;;;19.07;90.12
63097;BME280;49185;42.320;23.198;2023-06-14T05:53:00;94663.38;;;19.42;89.45
63097;BME280;49185;42.320;23.198;2023-06-14T05:55:25;94666.47;;;19.13;90.83
63097;BME280;49185;42.320;23.198;2023-06-14T05:57:50;94672.94;;;18.48;90.87
63097;BME280;49185;42.320;23.198;2023-06-14T06:00:16;94669.44;;;19.25;89.32
63097;BME280;49185;42.320;23.198;2023-06-14T06:02:43;94677.13;;;18.82;91.06
63097;BME280;49185;42.320;23.198;2023-06-14T06:05:11;94673.75;;;18.34;92.75
63097;BME280;49185;42.320;23.198;2023-06-14T06:07:37;94671.03;;;18.34;92.45
63097;BME280;49185;42.320;23.198;2023-06-14T06:10:04;94677.81;;;18.32;93.35
63097;BME280;49185;42.320;23.198;2023-06-14T06:12:29;94681.69;;;18.53;92.36
63097;BME280;49185;42.320;23.198;2023-06-14T06:14:55;94677.91;;;18.27;93.35
63097;BME280;49185;42.320;23.198;2023-06-14T06:17:20;94677.63;;;18.42;94.48
63097;BME280;49185;42.320;23.198;2023-06-14T06:19:45;94688.69;;;18.40;93.98
63097;BME280;49185;42.320;23.198;2023-06-14T06:22:11;94690.19;;;18.60;94.29
63097;BME280;49185;42.320;23.198;2023-06-14T06:24:36;94685.59;;;18.61;92.51
63097;BME280;49185;42.320;23.198;2023-06-14T06:27:02;94683.78;;;18.43;91.05
63097;BME280;49185;42.320;23.198;2023-06-14T06:29:27;94691.88;;;18.56;91.73
63097;BME280;49185;42.320;23.198;2023-06-14T06:31:53;94693.06;;;18.64;92.75
63097;BME280;49185;42.320;23.198;2023-06-14T06:34:18;94690.88;;;18.94;90.44
63097;BME280;49185;42.320;23.198;2023-06-14T06:36:43;94684.31;;;18.86;91.36
63097;BME280;49185;42.320;23.198;2023-06-14T06:39:09;94689.59;;;18.50;91.27
63097;BME280;49185;42.320;23.198;2023-06-14T06:41:34;94695.88;;;18.73;91.91
63097;BME280;49185;42.320;23.198;2023-06-14T06:44:00;94696.47;;;18.97;91.07
63097;BME280;49185;42.320;23.198;2023-06-14T06:46:25;94693.59;;;19.30;89.03
63097;BME280;49185;42.320;23.198;2023-06-14T06:48:50;94692.94;;;19.47;87.86
63097;BME280;49185;42.320;23.198;2023-06-14T06:51:16;94694.53;;;19.85;87.24
63097;BME280;49185;42.320;23.198;2023-06-14T06:53:42;94696.28;;;20.92;80.57
63097;BME280;49185;42.320;23.198;2023-06-14T06:56:07;94701.28;;;21.34;78.26
63097;BME280;49185;42.320;23.198;2023-06-14T06:58:33;94692.81;;;22.05;76.17
63097;BME280;49185;42.320;23.198;2023-06-14T07:00:58;94686.63;;;23.41;70.56
63097;BME280;49185;42.320;23.198;2023-06-14T07:03:23;94685.38;;;24.14;66.66
63097;BME280;49185;42.320;23.198;2023-06-14T07:05:49;94688.41;;;24.13;65.50
63097;BME280;49185;42.320;23.198;2023-06-14T07:08:15;94690.06;;;24.38;64.78
63097;BME280;49185;42.320;23.198;2023-06-14T07:10:40;94683.69;;;24.34;66.20
63097;BME280;49185;42.320;23.198;2023-06-14T07:13:05;94679.84;;;23.90;66.43
63097;BME280;49185;42.320;23.198;2023-06-14T07:15:31;94678.28;;;23.67;68.25
63097;BME280;49185;42.320;23.198;2023-06-14T07:17:56;94675.69;;;23.71;66.54
63097;BME280;49185;42.320;23.198;2023-06-14T07:20:22;94674.09;;;23.91;65.53
63097;BME280;49185;42.320;23.198;2023-06-14T07:22:47;94674.81;;;23.58;66.47
63097;BME280;49185;42.320;23.198;2023-06-14T07:25:12;94675.97;;;23.36;66.89
63097;BME280;49185;42.320;23.198;2023-06-14T07:27:38;94668.81;;;23.53;68.19
63097;BME280;49185;42.320;23.198;2023-06-14T07:30:04;94672.19;;;24.04;65.24
63097;BME280;49185;42.320;23.198;2023-06-14T07:32:29;94676.59;;;25.04;61.61
63097;BME280;49185;42.320;23.198;2023-06-14T07:34:55;94664.00;;;25.24;59.91
63097;BME280;49185;42.320;23.198;2023-06-14T07:37:20;94673.16;;;26.12;57.54
63097;BME280;49185;42.320;23.198;2023-06-14T07:39:45;94668.81;;;25.55;58.99
63097;BME280;49185;42.320;23.198;2023-06-14T07:42:11;94665.03;;;25.07;58.35
63097;BME280;49185;42.320;23.198;2023-06-14T07:44:36;94676.78;;;25.48;56.22
63097;BME280;49185;42.320;23.198;2023-06-14T07:47:02;94671.75;;;26.34;55.48
63097;BME280;49185;42.320;23.198;2023-06-14T07:49:27;94672.28;;;27.36;51.82
63097;BME280;49185;42.320;23.198;2023-06-14T07:51:52;94679.94;;;27.14;53.08
63097;BME280;49185;42.320;23.198;2023-06-14T07:54:18;94678.94;;;26.87;54.77
63097;BME280;49185;42.320;23.198;2023-06-14T07:56:43;94682.56;;;25.87;57.97
63097;BME280;49185;42.320;23.198;2023-06-14T07:59:09;94688.44;;;26.01;58.29
63097;BME280;49185;42.320;23.198;2023-06-14T08:01:34;94691.06;;;26.89;52.33
63097;BME280;49185;42.320;23.198;2023-06-14T08:04:00;94699.00;;;27.46;51.90
63097;BME280;49185;42.320;23.198;2023-06-14T08:06:25;94702.22;;;26.21;57.04
63097;BME280;49185;42.320;23.198;2023-06-14T08:08:51;94702.94;;;26.33;56.85
63097;BME280;49185;42.320;23.198;2023-06-14T08:11:16;94708.00;;;26.19;53.15
63097;BME280;49185;42.320;23.198;2023-06-14T08:13:42;94710.97;;;25.86;55.37
63097;BME280;49185;42.320;23.198;2023-06-14T08:16:07;94711.41;;;25.47;55.58
63097;BME280;49185;42.320;23.198;2023-06-14T08:18:33;94715.88;;;25.80;55.63
63097;BME280;49185;42.320;23.198;2023-06-14T08:20:58;94711.28;;;26.25;57.95
63097;BME280;49185;42.320;23.198;2023-06-14T08:23:23;94708.19;;;28.74;52.48
63097;BME280;49185;42.320;23.198;2023-06-14T08:25:49;94712.78;;;27.34;54.33
63097;BME280;49185;42.320;23.198;2023-06-14T08:28:14;94710.94;;;26.42;53.82
63097;BME280;49185;42.320;23.198;2023-06-14T08:30:42;94715.44;;;25.25;59.03
63097;BME280;49185;42.320;23.198;2023-06-14T08:33:07;94706.31;;;25.09;57.33
63097;BME280;49185;42.320;23.198;2023-06-14T08:35:33;94702.69;;;26.55;55.47
63097;BME280;49185;42.320;23.198;2023-06-14T08:37:58;94704.03;;;27.44;52.02
63097;BME280;49185;42.320;23.198;2023-06-14T08:40:24;94703.13;;;27.91;50.74
63097;BME280;49185;42.320;23.198;2023-06-14T08:42:54;94697.50;;;28.92;50.76
63097;BME280;49185;42.320;23.198;2023-06-14T08:45:21;94696.59;;;29.08;47.17
63097;BME280;49185;42.320;23.198;2023-06-14T08:47:47;94701.16;;;28.11;48.08
63097;BME280;49185;42.320;23.198;2023-06-14T08:50:13;94695.88;;;28.65;46.43
63097;BME280;49185;42.320;23.198;2023-06-14T08:52:41;94697.97;;;28.29;47.20
63097;BME280;49185;42.320;23.198;2023-06-14T08:55:10;94701.66;;;27.42;51.76
63097;BME280;49185;42.320;23.198;2023-06-14T08:57:37;94687.28;;;27.45;47.59
63097;BME280;49185;42.320;23.198;2023-06-14T09:00:04;94688.06;;;27.46;50.34
63097;BME280;49185;42.320;23.198;2023-06-14T09:02:29;94680.84;;;28.78;44.24
63097;BME280;49185;42.320;23.198;2023-06-14T09:04:55;94671.97;;;28.85;43.73
63097;BME280;49185;42.320;23.198;2023-06-14T09:07:20;94678.72;;;28.68;43.84
63097;BME280;49185;42.320;23.198;2023-06-14T09:09:45;94679.09;;;28.66;42.79
63097;BME280;49185;42.320;23.198;2023-06-14T09:12:11;94664.59;;;28.43;45.83
63097;BME280;49185;42.320;23.198;2023-06-14T09:14:37;94674.91;;;28.99;43.32
63097;BME280;49185;42.320;23.198;2023-06-14T09:17:02;94662.72;;;28.04;49.30
63097;BME280;49185;42.320;23.198;2023-06-14T09:19:28;94666.81;;;27.20;45.47
63097;BME280;49185;42.320;23.198;2023-06-14T09:21:54;94660.25;;;27.40;49.93
63097;BME280;49185;42.320;23.198;2023-06-14T09:24:19;94653.47;;;28.78;44.54
63097;BME280;49185;42.320;23.198;2023-06-14T09:26:48;94650.56;;;28.67;45.72
63097;BME280;49185;42.320;23.198;2023-06-14T09:29:16;94648.22;;;29.19;45.02
63097;BME280;49185;42.320;23.198;2023-06-14T09:31:42;94640.22;;;27.91;45.19
63097;BME280;49185;42.320;23.198;2023-06-14T09:34:08;94637.19;;;27.38;46.80
63097;BME280;49185;42.320;23.198;2023-06-14T09:36:34;94639.66;;;26.92;48.91
63097;BME280;49185;42.320;23.198;2023-06-14T09:39:03;94639.50;;;27.20;47.35
63097;BME280;49185;42.320;23.198;2023-06-14T09:41:35;94638.59;;;27.51;47.12
63097;BME280;49185;42.320;23.198;2023-06-14T09:44:03;94636.63;;;28.53;42.77
63097;BME280;49185;42.320;23.198;2023-06-14T09:46:30;94639.31;;;27.48;51.34
63097;BME280;49185;42.320;23.198;2023-06-14T09:48:59;94632.34;;;27.31;49.71
63097;BME280;49185;42.320;23.198;2023-06-14T09:51:25;94635.94;;;26.84;49.79
63097;BME280;49185;42.320;23.198;2023-06-14T09:53:52;94628.38;;;26.77;53.94
63097;BME280;49185;42.320;23.198;2023-06-14T09:56:34;94617.00;;;28.05;48.23
63097;BME280;49185;42.320;23.198;2023-06-14T09:59:06;94623.72;;;28.53;42.11
63097;BME280;49185;42.320;23.198;2023-06-14T10:01:35;94624.91;;;27.90;43.88
63097;BME280;49185;42.320;23.198;2023-06-14T10:04:06;94629.75;;;27.03;48.75
63097;BME280;49185;42.320;23.198;2023-06-14T10:06:33;94619.03;;;28.08;47.37
63097;BME280;49185;42.320;23.198;2023-06-14T10:09:02;94609.19;;;28.26;44.96
63097;BME280;49185;42.320;23.198;2023-06-14T10:11:28;94604.88;;;27.63;43.91
63097;BME280;49185;42.320;23.198;2023-06-14T10:13:56;94602.88;;;27.05;49.32
63097;BME280;49185;42.320;23.198;2023-06-14T10:16:30;94598.19;;;27.99;45.12
63097;BME280;49185;42.320;23.198;2023-06-14T10:24:14;94604.19;;;28.32;43.60
63097;BME280;49185;42.320;23.198;2023-06-14T10:26:51;94594.22;;;28.20;44.58
63097;BME280;49185;42.320;23.198;2023-06-14T10:29:17;94598.25;;;27.64;48.63
63097;BME280;49185;42.320;23.198;2023-06-14T10:31:48;94591.72;;;27.69;49.26
63097;BME280;49185;42.320;23.198;2023-06-14T10:34:24;94592.72;;;27.99;47.69
63097;BME280;49185;42.320;23.198;2023-06-14T10:37:10;94584.00;;;28.40;46.84
63097;BME280;49185;42.320;23.198;2023-06-14T10:39:43;94581.97;;;29.13;43.00
63097;BME280;49185;42.320;23.198;2023-06-14T10:42:09;94577.78;;;28.66;47.01
63097;BME280;49185;42.320;23.198;2023-06-14T10:44:57;94568.50;;;28.25;45.29
63097;BME280;49185;42.320;23.198;2023-06-14T10:47:29;94560.84;;;28.57;45.55
63097;BME280;49185;42.320;23.198;2023-06-14T10:52:25;94566.78;;;29.80;41.19
63097;BME280;49185;42.320;23.198;2023-06-14T10:55:10;94564.88;;;29.54;44.25
63097;BME280;49185;42.320;23.198;2023-06-14T11:00:06;94561.28;;;28.89;40.88
63097;BME280;49185;42.320;23.198;2023-06-14T11:05:43;94564.72;;;29.09;46.57
63097;BME280;49185;42.320;23.198;2023-06-14T11:11:00;94570.75;;;30.31;38.71
63097;BME280;49185;42.320;23.198;2023-06-14T11:13:27;94565.84;;;29.72;40.92
63097;BME280;49185;42.320;23.198;2023-06-14T11:15:52;94552.03;;;29.99;44.15
63097;BME280;49185;42.320;23.198;2023-06-14T11:18:18;94561.78;;;29.93;42.99
63097;BME280;49185;42.320;23.198;2023-06-14T11:20:47;94552.22;;;28.55;44.21
63097;BME280;49185;42.320;23.198;2023-06-14T11:23:12;94546.47;;;28.14;47.50
63097;BME280;49185;42.320;23.198;2023-06-14T11:25:38;94547.44;;;27.82;45.85
63097;BME280;49185;42.320;23.198;2023-06-14T11:28:04;94543.06;;;28.70;45.05
63097;BME280;49185;42.320;23.198;2023-06-14T11:30:29;94546.22;;;30.49;40.76
63097;BME280;49185;42.320;23.198;2023-06-14T11:32:55;94548.81;;;30.83;43.88
63097;BME280;49185;42.320;23.198;2023-06-14T11:35:25;94536.63;;;29.50;42.33
63097;BME280;49185;42.320;23.198;2023-06-14T11:37:56;94531.91;;;29.81;44.01
63097;BME280;49185;42.320;23.198;2023-06-14T11:40:26;94537.47;;;29.91;44.28
63097;BME280;49185;42.320;23.198;2023-06-14T11:42:59;94525.22;;;30.75;42.07
63097;BME280;49185;42.320;23.198;2023-06-14T11:45:24;94523.00;;;30.98;40.88
63097;BME280;49185;42.320;23.198;2023-06-14T11:47:50;94523.56;;;30.66;39.74
63097;BME280;49185;42.320;23.198;2023-06-14T11:50:15;94521.00;;;29.88;44.87
63097;BME280;49185;42.320;23.198;2023-06-14T11:52:41;94515.25;;;28.45;45.78
63097;BME280;49185;42.320;23.198;2023-06-14T11:55:07;94507.97;;;27.60;48.28
63097;BME280;49185;42.320;23.198;2023-06-14T11:57:36;94515.78;;;27.19;49.98
63097;BME280;49185;42.320;23.198;2023-06-14T12:00:07;94510.00;;;26.66;52.28
63097;BME280;49185;42.320;23.198;2023-06-14T12:02:32;94507.16;;;26.27;52.43
63097;BME280;49185;42.320;23.198;2023-06-14T12:05:04;94508.31;;;27.55;54.03
63097;BME280;49185;42.320;23.198;2023-06-14T12:07:30;94501.84;;;27.44;49.58
63097;BME280;49185;42.320;23.198;2023-06-14T12:12:25;94515.91;;;27.07;53.46
63097;BME280;49185;42.320;23.198;2023-06-14T12:14:51;94512.50;;;28.68;46.15
63097;BME280;49185;42.320;23.198;2023-06-14T12:17:17;94513.16;;;28.58;46.32
63097;BME280;49185;42.320;23.198;2023-06-14T12:19:43;94508.75;;;28.53;46.76
63097;BME280;49185;42.320;23.198;2023-06-14T12:22:10;94503.00;;;28.89;45.30
63097;BME280;49185;42.320;23.198;2023-06-14T12:24:35;94505.69;;;28.32;46.89
63097;BME280;49185;42.320;23.198;2023-06-14T12:27:01;94513.00;;;29.38;40.72
63097;BME280;49185;42.320;23.198;2023-06-14T12:29:26;94518.94;;;31.55;38.21
63097;BME280;49185;42.320;23.198;2023-06-14T12:31:52;94523.47;;;31.08;40.43
63097;BME280;49185;42.320;23.198;2023-06-14T12:34:17;94518.41;;;30.54;42.66
63097;BME280;49185;42.320;23.198;2023-06-14T12:36:43;94517.69;;;30.64;39.73
63097;BME280;49185;42.320;23.198;2023-06-14T12:39:08;94521.41;;;27.69;45.53
63097;BME280;49185;42.320;23.198;2023-06-14T12:41:34;94516.81;;;26.40;50.44
63097;BME280;49185;42.320;23.198;2023-06-14T12:43:59;94503.16;;;25.16;54.38
63097;BME280;49185;42.320;23.198;2023-06-14T12:46:25;94515.84;;;25.25;54.09
63097;BME280;49185;42.320;23.198;2023-06-14T12:48:50;94502.91;;;25.22;52.61
63097;BME280;49185;42.320;23.198;2023-06-14T12:51:16;94510.13;;;24.36;54.86
63097;BME280;49185;42.320;23.198;2023-06-14T12:53:41;94501.25;;;23.65;59.14
63097;BME280;49185;42.320;23.198;2023-06-14T12:56:06;94489.53;;;23.40;64.14
63097;BME280;49185;42.320;23.198;2023-06-14T12:58:32;94485.91;;;24.31;62.87
63097;BME280;49185;42.320;23.198;2023-06-14T13:00:58;94479.34;;;23.95;62.80
63097;BME280;49185;42.320;23.198;2023-06-14T13:03:23;94488.34;;;23.62;62.00
63097;BME280;49185;42.320;23.198;2023-06-14T13:05:49;94485.03;;;23.57;64.64
63097;BME280;49185;42.320;23.198;2023-06-14T13:08:14;94477.72;;;23.69;61.47